Campbell River, Canada
Current Conditions -  °F | °C
As of 3:00 PM on Friday 28 Nov 2014 (Local Time) from CYBL Reporting Station
Broken Clouds Broken Clouds  
Wind Chill: 28°   Ceiling: 5500
Heat Index: 36°   Visibility: 30mi
Dew Point: 23°   Wind: 10mph
Humidity: 60%   Direction: 310°NW
Pressure: 29.51"   Gusts: NA
Location:  50.02°N, 125.25°W
Report Text: CYBL 282300Z 31009KT 30SM FEW025 BKN055 02/M05 A2951 RMK SC2SC4 SLP995
Loading
Personal Weather Stations






























Interactive Weather Map New forecast layout! Learn more

10-Day Weather Forecast

Advertisements
Track Severe Weather on mobile